Time;durP1;ratioP1;P1;durP2;ratioP2;P2;SDS_P1;SDS_P2;PMS_P1;PMS_P2;Temp;Humidity;BMP_temperature;BMP_pressure;BME280_temperature;BME280_humidity;BME280_pressure;Samples;Min_cycle;Max_cycle;Signal;HPM_P1;HPM_P2
2023/08/28 00:01:41;;;;;;;;;;;15.80;67.40;;;;;;5030443;28;19963;-73
2023/08/28 00:04:06;;;;;;;;;;;15.80;67.50;;;;;;5031197;28;19917;-74
2023/08/28 00:06:32;;;;;;;;;;;15.80;67.60;;;;;;5029876;28;19913;-73
2023/08/28 00:08:57;;;;;;;;;;;15.70;67.60;;;;;;5031617;28;19996;-73
2023/08/28 00:11:23;;;;;;;;;;;15.70;67.60;;;;;;5029965;28;19909;-74
2023/08/28 00:13:48;;;;;;;;;;;15.70;67.90;;;;;;5031093;28;19914;-73
2023/08/28 00:16:14;;;;;;;;;;;15.70;67.90;;;;;;5030826;28;19913;-74
2023/08/28 00:18:39;;;;;;;;;;;15.70;68.20;;;;;;5029206;28;20273;-73
2023/08/28 00:21:05;;;;;;;;;;;15.70;68.60;;;;;;5031697;28;20257;-73
2023/08/28 00:23:32;;;;;;;;;;;15.80;68.80;;;;;;5029282;28;20028;-73
2023/08/28 00:25:58;;;;;;;;;;;15.80;68.80;;;;;;5030176;28;20289;-73
2023/08/28 00:28:23;;;;;;;;;;;15.80;68.60;;;;;;5030392;28;19913;-72
2023/08/28 00:30:49;;;;;;;;;;;15.70;68.20;;;;;;5031552;28;20392;-73
2023/08/28 00:33:14;;;;;;;;;;;15.70;68.00;;;;;;5030005;28;19920;-73
2023/08/28 00:35:40;;;;;;;;;;;15.70;68.10;;;;;;5029104;28;19952;-73
2023/08/28 00:38:05;;;;;;;;;;;15.70;68.30;;;;;;5030410;28;19913;-73
2023/08/28 00:40:31;;;;;;;;;;;15.70;68.10;;;;;;5031104;28;19921;-73
2023/08/28 00:42:56;;;;;;;;;;;15.70;68.20;;;;;;5035062;28;19909;-73
2023/08/28 00:45:22;;;;;;;;;;;15.70;68.10;;;;;;5033914;28;19968;-72
2023/08/28 00:47:48;;;;;;;;;;;15.70;67.90;;;;;;5033086;28;20336;-72
2023/08/28 00:50:14;;;;;;;;;;;15.60;68.20;;;;;;5034529;28;19986;-73
2023/08/28 00:52:39;;;;;;;;;;;15.60;68.20;;;;;;5033734;28;19956;-73
2023/08/28 00:55:05;;;;;;;;;;;15.60;68.50;;;;;;5033605;28;20428;-73
2023/08/28 00:57:31;;;;;;;;;;;15.60;68.90;;;;;;5032347;28;20274;-73
2023/08/28 00:59:57;;;;;;;;;;;15.70;69.20;;;;;;5030408;28;19917;-72
2023/08/28 01:02:22;;;;;;;;;;;15.80;70.00;;;;;;5034600;28;19909;-73
2023/08/28 01:04:48;;;;;;;;;;;15.80;70.20;;;;;;5033968;28;19917;-73
2023/08/28 01:07:13;;;;;;;;;;;16.00;70.30;;;;;;5033424;28;19925;-73
2023/08/28 01:10:01;;;;;;;;;;;16.10;70.20;;;;;;5033853;28;20262;-72
2023/08/28 01:12:44;;;;;;;;;;;16.10;70.10;;;;;;5031918;28;19913;-73
2023/08/28 01:15:17;;;;;;;;;;;16.20;69.80;;;;;;5034046;28;19963;-72
2023/08/28 01:17:44;;;;;;;;;;;16.10;69.40;;;;;;5033255;28;19999;-72
2023/08/28 01:20:13;;;;;;;;;;;16.20;69.30;;;;;;5033360;28;20360;-73
2023/08/28 01:22:50;;;;;;;;;;;16.20;69.30;;;;;;5034609;28;19916;-72
2023/08/28 01:25:16;;;;;;;;;;;16.30;69.30;;;;;;5034470;28;19921;-72
2023/08/28 01:27:42;;;;;;;;;;;16.30;69.30;;;;;;5034311;28;19910;-72
2023/08/28 01:30:12;;;;;;;;;;;16.30;69.40;;;;;;5015827;28;19917;-72
2023/08/28 01:32:38;;;;;;;;;;;16.40;69.40;;;;;;5013163;28;19913;-72
2023/08/28 01:35:07;;;;;;;;;;;16.40;69.10;;;;;;5014562;28;19925;-72
2023/08/28 01:37:39;;;;;;;;;;;16.40;68.60;;;;;;5021592;28;19953;-72
2023/08/28 01:40:05;;;;;;;;;;;16.30;67.90;;;;;;5032882;28;20367;-72
2023/08/28 01:42:32;;;;;;;;;;;16.20;67.50;;;;;;5032856;28;19924;-72
2023/08/28 01:44:57;;;;;;;;;;;16.20;67.50;;;;;;5034212;28;19917;-72
2023/08/28 01:47:23;;;;;;;;;;;16.10;67.30;;;;;;5033905;28;19947;-72
2023/08/28 01:49:51;;;;;;;;;;;16.00;67.20;;;;;;5033717;28;20012;-72
2023/08/28 01:52:17;;;;;;;;;;;15.90;67.20;;;;;;5033462;28;19909;-73
2023/08/28 01:54:43;;;;;;;;;;;15.80;67.50;;;;;;5033958;28;19913;-73
2023/08/28 01:57:08;;;;;;;;;;;15.90;67.70;;;;;;5033645;28;20344;-72
2023/08/28 01:59:34;;;;;;;;;;;15.80;67.90;;;;;;5033485;28;19921;-72
2023/08/28 02:01:59;;;;;;;;;;;15.80;68.10;;;;;;5030697;28;19913;-72
2023/08/28 02:04:24;;;;;;;;;;;15.80;68.10;;;;;;5032742;28;19921;-72
2023/08/28 02:06:50;;;;;;;;;;;15.80;68.30;;;;;;5033338;28;19963;-72
2023/08/28 02:09:15;;;;;;;;;;;15.70;68.40;;;;;;5033408;28;19917;-72
2023/08/28 02:11:41;;;;;;;;;;;15.80;68.50;;;;;;5033263;28;20000;-73
2023/08/28 02:14:06;;;;;;;;;;;15.80;68.30;;;;;;5033720;28;19925;-72
2023/08/28 02:16:34;;;;;;;;;;;15.80;68.30;;;;;;5031273;28;19912;-72
2023/08/28 02:18:59;;;;;;;;;;;15.70;68.40;;;;;;5031067;28;19960;-72
2023/08/28 02:21:25;;;;;;;;;;;15.70;68.20;;;;;;5031410;28;20341;-72
2023/08/28 02:23:50;;;;;;;;;;;15.70;67.70;;;;;;5032495;28;20301;-72
2023/08/28 02:26:16;;;;;;;;;;;15.60;67.30;;;;;;5032910;28;19971;-72
2023/08/28 02:28:41;;;;;;;;;;;15.50;67.50;;;;;;5033166;28;20012;-72
2023/08/28 02:31:06;;;;;;;;;;;15.50;67.50;;;;;;5033534;28;19917;-72
2023/08/28 02:33:32;;;;;;;;;;;15.50;67.90;;;;;;5032968;28;19925;-72
2023/08/28 02:35:59;;;;;;;;;;;15.50;67.80;;;;;;5033752;28;19921;-72
2023/08/28 02:38:25;;;;;;;;;;;15.50;68.10;;;;;;5030164;28;19913;-72
2023/08/28 02:40:50;;;;;;;;;;;15.40;67.80;;;;;;5030531;28;19925;-72
2023/08/28 02:43:15;;;;;;;;;;;15.40;67.50;;;;;;5032488;28;19956;-73
2023/08/28 02:45:41;;;;;;;;;;;15.40;67.20;;;;;;5030857;28;19945;-73
2023/08/28 02:48:09;;;;;;;;;;;15.30;67.10;;;;;;5032602;28;19917;-73
2023/08/28 02:50:35;;;;;;;;;;;15.30;67.00;;;;;;5032653;28;19968;-73
2023/08/28 02:53:00;;;;;;;;;;;15.20;67.10;;;;;;5031366;28;19996;-73
2023/08/28 02:55:26;;;;;;;;;;;15.20;67.10;;;;;;5020750;28;20326;-73
2023/08/28 02:57:51;;;;;;;;;;;15.10;67.50;;;;;;5012821;28;19913;-73
2023/08/28 03:00:18;;;;;;;;;;;15.20;68.00;;;;;;5013286;28;19924;-73
2023/08/28 03:02:44;;;;;;;;;;;15.20;67.80;;;;;;5012021;28;20417;-73
2023/08/28 03:05:09;;;;;;;;;;;15.10;67.40;;;;;;5026892;28;20024;-73
2023/08/28 03:07:34;;;;;;;;;;;15.10;67.10;;;;;;5032406;28;19909;-73
2023/08/28 03:10:00;;;;;;;;;;;15.00;67.00;;;;;;5031123;28;19917;-73
2023/08/28 03:12:25;;;;;;;;;;;15.00;67.00;;;;;;5032252;28;19909;-74
2023/08/28 03:14:51;;;;;;;;;;;14.90;66.90;;;;;;5032497;28;19917;-74
2023/08/28 03:17:16;;;;;;;;;;;14.90;67.10;;;;;;5031699;28;19939;-74
2023/08/28 03:19:42;;;;;;;;;;;14.90;67.70;;;;;;5032426;28;20059;-74
2023/08/28 03:22:07;;;;;;;;;;;14.90;68.40;;;;;;5032229;28;19968;-73
2023/08/28 03:24:32;;;;;;;;;;;15.00;68.80;;;;;;5030683;28;19917;-74
2023/08/28 03:26:58;;;;;;;;;;;15.00;68.90;;;;;;5032079;28;19913;-74
2023/08/28 03:29:23;;;;;;;;;;;15.00;69.00;;;;;;5032176;28;19917;-74
2023/08/28 03:31:49;;;;;;;;;;;15.00;68.80;;;;;;5032535;28;19931;-74
2023/08/28 03:34:15;;;;;;;;;;;15.10;68.60;;;;;;5032151;28;19924;-74
2023/08/28 03:36:41;;;;;;;;;;;15.10;68.60;;;;;;5031864;28;19964;-74
2023/08/28 03:39:07;;;;;;;;;;;15.10;68.30;;;;;;5032003;28;19917;-74
2023/08/28 03:41:32;;;;;;;;;;;15.10;68.30;;;;;;5029051;28;19913;-73
2023/08/28 03:43:58;;;;;;;;;;;15.10;68.50;;;;;;5031027;28;20388;-73
2023/08/28 03:46:23;;;;;;;;;;;15.10;68.30;;;;;;5030394;28;19917;-74
2023/08/28 03:48:49;;;;;;;;;;;15.10;67.90;;;;;;5031478;28;19909;-72
2023/08/28 03:51:14;;;;;;;;;;;15.10;67.60;;;;;;5031476;28;20011;-72
2023/08/28 03:53:41;;;;;;;;;;;15.00;67.30;;;;;;5031726;28;19936;-73
2023/08/28 03:56:06;;;;;;;;;;;14.90;67.30;;;;;;5015528;28;19956;-74
2023/08/28 03:58:31;;;;;;;;;;;14.90;67.40;;;;;;5011882;28;19945;-73
2023/08/28 04:00:57;;;;;;;;;;;14.80;67.60;;;;;;5012477;28;19917;-74
2023/08/28 04:03:22;;;;;;;;;;;14.80;67.70;;;;;;5011782;28;20369;-74
2023/08/28 04:05:48;;;;;;;;;;;14.80;67.60;;;;;;5028992;28;19971;-74
2023/08/28 04:08:14;;;;;;;;;;;14.80;67.70;;;;;;5030082;28;19917;-74
2023/08/28 04:10:40;;;;;;;;;;;14.80;67.50;;;;;;5031808;28;19917;-74
2023/08/28 04:13:06;;;;;;;;;;;14.70;67.40;;;;;;5030166;28;19916;-74
2023/08/28 04:15:31;;;;;;;;;;;14.60;67.30;;;;;;5034901;28;19995;-74
2023/08/28 04:17:59;;;;;;;;;;;14.60;67.40;;;;;;5035814;28;20396;-74
2023/08/28 04:20:25;;;;;;;;;;;14.70;67.90;;;;;;5033118;28;20023;-74
2023/08/28 04:22:50;;;;;;;;;;;14.70;68.50;;;;;;5034325;28;20393;-74
2023/08/28 04:25:16;;;;;;;;;;;14.70;68.20;;;;;;5035594;28;19919;-75
2023/08/28 04:27:41;;;;;;;;;;;14.70;68.20;;;;;;5035358;28;19970;-74
2023/08/28 04:30:07;;;;;;;;;;;14.70;68.10;;;;;;5035614;28;19967;-74
2023/08/28 04:32:33;;;;;;;;;;;14.70;68.20;;;;;;5034889;28;19917;-73
2023/08/28 04:34:58;;;;;;;;;;;14.70;67.90;;;;;;5033462;28;19913;-74
2023/08/28 04:37:24;;;;;;;;;;;14.70;67.70;;;;;;5034586;28;20365;-74
2023/08/28 04:39:50;;;;;;;;;;;14.70;67.70;;;;;;5035350;28;19917;-75
2023/08/28 04:42:15;;;;;;;;;;;14.70;67.90;;;;;;5033958;28;19909;-75
2023/08/28 04:44:41;;;;;;;;;;;14.70;68.00;;;;;;5034741;28;19921;-74
2023/08/28 04:47:07;;;;;;;;;;;14.80;68.40;;;;;;5034772;28;20008;-74
2023/08/28 04:49:32;;;;;;;;;;;14.80;68.50;;;;;;5035202;28;20375;-74
2023/08/28 04:51:57;;;;;;;;;;;14.90;68.60;;;;;;5034773;28;19924;-75
2023/08/28 04:54:23;;;;;;;;;;;15.00;68.70;;;;;;5033399;28;19913;-75
2023/08/28 04:56:48;;;;;;;;;;;15.10;68.70;;;;;;5034761;28;19913;-74
2023/08/28 04:59:14;;;;;;;;;;;15.20;68.70;;;;;;5034767;28;19983;-75
2023/08/28 05:01:39;;;;;;;;;;;15.30;68.90;;;;;;5034658;28;19913;-74
2023/08/28 05:04:05;;;;;;;;;;;15.50;69.10;;;;;;5034951;28;19921;-75
2023/08/28 05:06:30;;;;;;;;;;;15.80;69.40;;;;;;5034456;28;19920;-74
2023/08/28 05:08:56;;;;;;;;;;;16.00;69.60;;;;;;5034222;28;19917;-75
2023/08/28 05:11:21;;;;;;;;;;;16.20;69.50;;;;;;5032657;28;19913;-75
2023/08/28 05:13:47;;;;;;;;;;;16.30;69.30;;;;;;5030505;28;20051;-74
2023/08/28 05:16:12;;;;;;;;;;;16.30;69.00;;;;;;5031154;28;19913;-74
2023/08/28 05:18:38;;;;;;;;;;;16.30;68.90;;;;;;5028590;28;19920;-75
2023/08/28 05:21:03;;;;;;;;;;;16.30;69.00;;;;;;5029002;28;19917;-74
2023/08/28 05:23:29;;;;;;;;;;;16.30;69.10;;;;;;5034340;28;19924;-75
2023/08/28 05:25:55;;;;;;;;;;;16.30;69.30;;;;;;5032264;28;19921;-75
2023/08/28 05:28:20;;;;;;;;;;;16.40;69.60;;;;;;5027583;28;19920;-75
2023/08/28 05:30:46;;;;;;;;;;;16.50;69.90;;;;;;5028216;28;20003;-75
2023/08/28 05:33:11;;;;;;;;;;;16.60;70.20;;;;;;5018204;28;19924;-76
2023/08/28 05:35:38;;;;;;;;;;;16.70;70.20;;;;;;5022194;28;19921;-75
2023/08/28 05:38:04;;;;;;;;;;;16.80;70.10;;;;;;5017462;28;19936;-75
2023/08/28 05:40:30;;;;;;;;;;;16.90;70.10;;;;;;5032257;28;20295;-76
2023/08/28 05:42:55;;;;;;;;;;;17.10;70.00;;;;;;5023419;28;19914;-76
2023/08/28 05:45:21;;;;;;;;;;;17.10;70.00;;;;;;5029937;28;19925;-76
2023/08/28 05:47:47;;;;;;;;;;;17.30;70.20;;;;;;5022011;28;19936;-76
2023/08/28 05:50:12;;;;;;;;;;;17.30;70.30;;;;;;5012383;28;19922;-76
2023/08/28 05:52:38;;;;;;;;;;;17.50;70.50;;;;;;5018718;28;19913;-75
2023/08/28 05:55:04;;;;;;;;;;;17.70;70.90;;;;;;5014049;28;20338;-76
2023/08/28 05:57:30;;;;;;;;;;;17.90;70.60;;;;;;5011249;28;20332;-76
2023/08/28 05:59:55;;;;;;;;;;;18.00;70.10;;;;;;5020474;28;19925;-76
2023/08/28 06:02:21;;;;;;;;;;;18.10;70.10;;;;;;5026366;28;19917;-76
2023/08/28 06:04:51;;;;;;;;;;;18.20;70.30;;;;;;5030837;28;19940;-76
2023/08/28 06:07:16;;;;;;;;;;;18.40;70.50;;;;;;5017673;28;19987;-76
2023/08/28 06:09:42;;;;;;;;;;;18.60;70.40;;;;;;5029548;28;19918;-76
2023/08/28 06:12:08;;;;;;;;;;;18.70;70.20;;;;;;5029921;28;19917;-75
2023/08/28 06:14:33;;;;;;;;;;;18.80;70.10;;;;;;5026931;28;19921;-75
2023/08/28 06:16:59;;;;;;;;;;;19.00;71.10;;;;;;5020443;28;19933;-75
2023/08/28 06:19:25;;;;;;;;;;;19.60;72.60;;;;;;5020050;28;19996;-75
2023/08/28 06:21:50;;;;;;;;;;;20.20;73.20;;;;;;5032219;28;20380;-76
2023/08/28 06:24:16;;;;;;;;;;;20.70;73.30;;;;;;5011811;28;19918;-75
2023/08/28 06:26:42;;;;;;;;;;;21.30;73.60;;;;;;5023060;28;19968;-76
2023/08/28 06:29:07;;;;;;;;;;;21.80;72.60;;;;;;5011437;28;20345;-76
2023/08/28 06:31:32;;;;;;;;;;;22.10;71.30;;;;;;5024590;28;20262;-76
2023/08/28 06:33:58;;;;;;;;;;;22.20;71.00;;;;;;5021659;28;19913;-77
2023/08/28 06:36:23;;;;;;;;;;;22.30;70.30;;;;;;5026208;28;20019;-76
2023/08/28 06:38:51;;;;;;;;;;;22.20;69.70;;;;;;5015215;28;19909;-76
2023/08/28 06:41:17;;;;;;;;;;;22.20;69.50;;;;;;5032382;28;19915;-76
2023/08/28 06:43:43;;;;;;;;;;;22.20;69.50;;;;;;5016545;28;19910;-76
2023/08/28 06:46:08;;;;;;;;;;;22.20;69.90;;;;;;5022837;28;19921;-76
2023/08/28 06:48:34;;;;;;;;;;;22.20;69.70;;;;;;5010296;28;20474;-76
2023/08/28 06:50:59;;;;;;;;;;;22.10;69.60;;;;;;5011757;28;20373;-75
2023/08/28 06:53:25;;;;;;;;;;;22.00;69.30;;;;;;5017738;28;20392;-74
2023/08/28 06:55:51;;;;;;;;;;;21.90;69.80;;;;;;5012852;28;20015;-75
2023/08/28 06:58:16;;;;;;;;;;;21.80;69.20;;;;;;5018208;28;19913;-76
2023/08/28 07:00:42;;;;;;;;;;;21.80;69.80;;;;;;5030494;28;19917;-75
2023/08/28 07:03:08;;;;;;;;;;;21.80;70.10;;;;;;5029523;28;19913;-75
2023/08/28 07:05:33;;;;;;;;;;;21.80;69.30;;;;;;5030943;28;20261;-76
2023/08/28 07:07:59;;;;;;;;;;;21.80;70.60;;;;;;5017607;28;19913;-76
2023/08/28 07:10:24;;;;;;;;;;;21.90;70.90;;;;;;5027890;28;20278;-76
2023/08/28 07:12:49;;;;;;;;;;;22.20;71.60;;;;;;5030456;28;20324;-76
2023/08/28 07:15:18;;;;;;;;;;;22.70;72.70;;;;;;5011636;28;19917;-76
2023/08/28 07:17:43;;;;;;;;;;;23.10;72.60;;;;;;5013029;28;19921;-75
2023/08/28 07:20:09;;;;;;;;;;;23.50;73.20;;;;;;5025373;28;20352;-75
2023/08/28 07:22:35;;;;;;;;;;;24.00;73.50;;;;;;5031529;28;19960;-74
2023/08/28 07:25:01;;;;;;;;;;;24.70;73.30;;;;;;5032403;28;19917;-75
2023/08/28 07:27:26;;;;;;;;;;;25.20;73.40;;;;;;5016387;28;20376;-75
2023/08/28 07:29:52;;;;;;;;;;;25.80;73.30;;;;;;5030936;28;20361;-74
2023/08/28 07:32:17;;;;;;;;;;;26.30;73.00;;;;;;5030843;28;19909;-74
2023/08/28 07:34:43;;;;;;;;;;;26.90;73.00;;;;;;5031400;28;19918;-74
2023/08/28 07:37:08;;;;;;;;;;;27.30;72.50;;;;;;5030932;28;19909;-74
2023/08/28 07:39:34;;;;;;;;;;;27.90;72.30;;;;;;5031277;28;20385;-74
2023/08/28 07:41:59;;;;;;;;;;;28.40;72.70;;;;;;5031703;28;19949;-75
2023/08/28 07:44:25;;;;;;;;;;;29.00;72.30;;;;;;5029481;28;19932;-74
2023/08/28 07:46:50;;;;;;;;;;;29.40;71.60;;;;;;5031930;28;20142;-75
2023/08/28 07:49:16;;;;;;;;;;;29.70;69.20;;;;;;5030536;28;20353;-75
2023/08/28 07:51:41;;;;;;;;;;;29.80;69.60;;;;;;5028879;28;19920;-75
2023/08/28 07:54:07;;;;;;;;;;;30.20;70.40;;;;;;5031827;28;19925;-75
2023/08/28 07:56:32;;;;;;;;;;;30.60;70.50;;;;;;5029791;28;19917;-74
2023/08/28 07:58:58;;;;;;;;;;;30.90;69.80;;;;;;5030430;28;20011;-75
2023/08/28 08:01:23;;;;;;;;;;;31.30;68.70;;;;;;5028797;28;19991;-75
2023/08/28 08:03:49;;;;;;;;;;;31.60;68.50;;;;;;5031362;28;20359;-75
2023/08/28 08:06:15;;;;;;;;;;;31.90;68.10;;;;;;5027950;28;19917;-74
2023/08/28 08:08:40;;;;;;;;;;;32.20;67.60;;;;;;5026076;28;20331;-74
2023/08/28 08:11:06;;;;;;;;;;;32.40;67.90;;;;;;5021744;28;19924;-74
2023/08/28 08:13:31;;;;;;;;;;;32.70;67.00;;;;;;5018385;28;19913;-74
2023/08/28 08:15:57;;;;;;;;;;;33.00;67.10;;;;;;5012190;28;20308;-74
2023/08/28 08:18:22;;;;;;;;;;;33.30;66.60;;;;;;5017775;28;20007;-74
2023/08/28 08:20:48;;;;;;;;;;;33.50;66.10;;;;;;5030112;28;20324;-74
2023/08/28 08:23:13;;;;;;;;;;;33.70;65.00;;;;;;5030180;28;19913;-74
2023/08/28 08:25:39;;;;;;;;;;;33.80;63.70;;;;;;5031482;28;20039;-74
2023/08/28 08:28:04;;;;;;;;;;;33.90;63.20;;;;;;5029457;28;20372;-73
2023/08/28 08:30:30;;;;;;;;;;;33.70;59.60;;;;;;5027480;28;19917;-73
2023/08/28 08:32:55;;;;;;;;;;;33.60;61.40;;;;;;5027708;28;19975;-78
2023/08/28 08:35:21;;;;;;;;;;;33.50;62.10;;;;;;5042346;28;19948;-77
2023/08/28 08:37:47;;;;;;;;;;;33.60;62.00;;;;;;5039654;28;19909;-79
2023/08/28 08:40:14;;;;;;;;;;;33.80;60.60;;;;;;5042875;28;19925;-78
2023/08/28 08:42:39;;;;;;;;;;;34.20;60.90;;;;;;5048824;28;19913;-78
2023/08/28 08:45:05;;;;;;;;;;;34.10;57.00;;;;;;5047363;28;19921;-78
2023/08/28 08:47:31;;;;;;;;;;;33.90;58.00;;;;;;5045049;28;19925;-77
2023/08/28 08:49:59;;;;;;;;;;;33.90;57.70;;;;;;5040551;28;19956;-78
2023/08/28 08:52:24;;;;;;;;;;;34.20;57.60;;;;;;5034759;28;19917;-78
2023/08/28 08:54:53;;;;;;;;;;;34.30;55.20;;;;;;5034479;28;20004;-75
2023/08/28 08:57:22;;;;;;;;;;;34.40;53.30;;;;;;5038788;28;19909;-77
2023/08/28 08:59:49;;;;;;;;;;;34.50;52.40;;;;;;5031848;28;20404;-77
2023/08/28 09:02:15;;;;;;;;;;;34.70;52.00;;;;;;5037402;28;19929;-77
2023/08/28 09:04:41;;;;;;;;;;;34.80;51.40;;;;;;5041188;28;19922;-78
2023/08/28 09:07:07;;;;;;;;;;;34.90;47.90;;;;;;5033513;28;19924;-77
2023/08/28 09:09:33;;;;;;;;;;;34.70;45.40;;;;;;5027098;28;19918;-75
2023/08/28 09:11:58;;;;;;;;;;;34.40;44.60;;;;;;5040920;28;19980;-76
2023/08/28 09:14:24;;;;;;;;;;;34.30;45.70;;;;;;5048872;28;19940;-76
2023/08/28 09:16:49;;;;;;;;;;;34.40;46.00;;;;;;5047005;28;19913;-76
2023/08/28 09:19:15;;;;;;;;;;;34.60;45.70;;;;;;5048796;28;19918;-74
2023/08/28 09:21:45;;;;;;;;;;;34.70;45.70;;;;;;5048787;28;19972;-76
2023/08/28 09:24:10;;;;;;;;;;;34.70;43.00;;;;;;5047240;28;19917;-76
2023/08/28 09:26:39;;;;;;;;;;;34.50;42.50;;;;;;5048275;28;19967;-77
2023/08/28 09:29:06;;;;;;;;;;;34.50;42.30;;;;;;5045259;28;19920;-76
2023/08/28 09:31:39;;;;;;;;;;;34.50;42.30;;;;;;5047129;28;20278;-74
2023/08/28 09:34:05;;;;;;;;;;;34.50;41.60;;;;;;5045978;28;20403;-76
2023/08/28 09:36:35;;;;;;;;;;;34.40;39.30;;;;;;5048722;28;19909;-76
2023/08/28 09:39:01;;;;;;;;;;;34.20;40.00;;;;;;5046767;28;20286;-76
2023/08/28 09:41:36;;;;;;;;;;;34.00;39.20;;;;;;5047487;28;19913;-70
2023/08/28 09:44:01;;;;;;;;;;;33.90;40.10;;;;;;5046896;28;19956;-76
2023/08/28 09:46:27;;;;;;;;;;;33.80;40.20;;;;;;5045621;28;19917;-76
2023/08/28 09:48:53;;;;;;;;;;;33.80;39.00;;;;;;5047338;28;19916;-76
2023/08/28 09:51:19;;;;;;;;;;;33.70;39.30;;;;;;5046291;28;19917;-74
2023/08/28 09:53:57;;;;;;;;;;;33.70;39.00;;;;;;5047708;28;19915;-76
2023/08/28 09:56:29;;;;;;;;;;;33.60;38.80;;;;;;5048233;28;20044;-75
2023/08/28 09:58:56;;;;;;;;;;;33.50;38.10;;;;;;5045727;28;19935;-74
2023/08/28 10:01:22;;;;;;;;;;;33.30;38.40;;;;;;5044417;28;19924;-76
2023/08/28 10:03:47;;;;;;;;;;;33.30;38.30;;;;;;5045673;28;19909;-76
2023/08/28 10:06:13;;;;;;;;;;;33.20;38.00;;;;;;5044639;28;19917;-76
2023/08/28 10:08:40;;;;;;;;;;;33.20;38.70;;;;;;5043965;28;19909;-75
2023/08/28 10:11:05;;;;;;;;;;;33.30;38.00;;;;;;5046388;28;19921;-76
2023/08/28 10:13:31;;;;;;;;;;;33.40;37.10;;;;;;5045090;28;19916;-74
2023/08/28 10:16:11;;;;;;;;;;;33.30;36.00;;;;;;5044230;28;19921;-73
2023/08/28 10:18:37;;;;;;;;;;;33.30;36.30;;;;;;5042528;28;19917;-76
2023/08/28 10:21:02;;;;;;;;;;;33.30;36.30;;;;;;5043382;28;19944;-76
2023/08/28 10:23:29;;;;;;;;;;;33.20;36.10;;;;;;5042669;28;20328;-74
2023/08/28 10:25:55;;;;;;;;;;;33.30;36.90;;;;;;5043921;28;20028;-75
2023/08/28 10:28:22;;;;;;;;;;;33.30;36.60;;;;;;5044816;28;19989;-76
2023/08/28 10:30:48;;;;;;;;;;;33.30;36.10;;;;;;5043983;28;19921;-76
2023/08/28 10:33:14;;;;;;;;;;;33.40;34.60;;;;;;5046237;28;19916;-76
2023/08/28 10:35:41;;;;;;;;;;;33.20;35.20;;;;;;5044216;28;19924;-75
2023/08/28 10:38:06;;;;;;;;;;;33.30;35.40;;;;;;5043949;28;19935;-75
2023/08/28 10:40:33;;;;;;;;;;;33.20;34.00;;;;;;5042537;28;19917;-76
2023/08/28 10:42:59;;;;;;;;;;;32.80;33.90;;;;;;5044837;28;19913;-75
2023/08/28 10:45:24;;;;;;;;;;;32.70;34.60;;;;;;5044694;28;20353;-75
2023/08/28 10:47:50;;;;;;;;;;;32.70;34.70;;;;;;5043475;28;20177;-77
2023/08/28 10:50:16;;;;;;;;;;;32.70;34.90;;;;;;5041239;28;19921;-75
2023/08/28 10:52:41;;;;;;;;;;;32.80;34.90;;;;;;5035442;28;19917;-70
2023/08/28 10:55:07;;;;;;;;;;;32.80;35.20;;;;;;5031551;28;19956;-69
2023/08/28 10:57:34;;;;;;;;;;;33.00;34.70;;;;;;5030784;28;19948;-68
2023/08/28 11:00:02;;;;;;;;;;;33.20;35.20;;;;;;5032859;28;19917;-69
2023/08/28 11:02:47;;;;;;;;;;;33.40;35.60;;;;;;5032592;28;20376;-69
2023/08/28 11:05:14;;;;;;;;;;;33.80;34.80;;;;;;5030159;28;19917;-69
2023/08/28 11:07:43;;;;;;;;;;;34.00;34.70;;;;;;5032269;28;19909;-70
2023/08/28 11:10:15;;;;;;;;;;;34.20;34.40;;;;;;5032014;28;20373;-69
2023/08/28 11:12:53;;;;;;;;;;;34.50;34.30;;;;;;5032173;28;19955;-69
2023/08/28 11:15:29;;;;;;;;;;;34.70;33.80;;;;;;5031251;28;19924;-69
2023/08/28 11:18:17;;;;;;;;;;;34.80;32.80;;;;;;5030740;28;19983;-70
2023/08/28 11:20:45;;;;;;;;;;;34.80;32.80;;;;;;5032673;28;19917;-69
2023/08/28 11:23:18;;;;;;;;;;;34.60;31.70;;;;;;5031176;28;19920;-69
2023/08/28 11:25:43;;;;;;;;;;;34.30;31.10;;;;;;5030044;28;19920;-69
2023/08/28 11:28:22;;;;;;;;;;;34.20;31.60;;;;;;5032132;28;19917;-69
2023/08/28 11:30:48;;;;;;;;;;;34.20;31.70;;;;;;5030090;28;20349;-69
2023/08/28 11:33:13;;;;;;;;;;;34.30;31.70;;;;;;5032043;28;19920;-69
2023/08/28 11:35:39;;;;;;;;;;;34.60;32.20;;;;;;5031659;28;20056;-70
2023/08/28 11:38:04;;;;;;;;;;;35.10;31.80;;;;;;5030188;28;19924;-70
2023/08/28 11:40:30;;;;;;;;;;;35.50;31.70;;;;;;5032283;28;19921;-69
2023/08/28 11:43:03;;;;;;;;;;;35.70;29.30;;;;;;5030452;28;19913;-69
2023/08/28 11:45:28;;;;;;;;;;;35.50;29.60;;;;;;5032094;28;19924;-69
2023/08/28 11:47:54;;;;;;;;;;;35.60;30.10;;;;;;5030638;28;20292;-69
2023/08/28 11:50:19;;;;;;;;;;;35.90;29.90;;;;;;5030658;28;19954;-70
2023/08/28 11:52:50;;;;;;;;;;;36.30;29.70;;;;;;5030351;28;19967;-69
2023/08/28 11:55:16;;;;;;;;;;;36.30;29.10;;;;;;5030946;28;19917;-70
2023/08/28 11:57:42;;;;;;;;;;;36.40;29.10;;;;;;5031661;28;19913;-70
2023/08/28 12:00:11;;;;;;;;;;;36.40;28.20;;;;;;5030203;28;19924;-69
2023/08/28 12:02:37;;;;;;;;;;;36.30;28.30;;;;;;5031661;28;19920;-69
2023/08/28 12:05:04;;;;;;;;;;;36.10;27.50;;;;;;5030356;28;19979;-69
2023/08/28 12:07:29;;;;;;;;;;;35.50;26.70;;;;;;5030565;28;19932;-69
2023/08/28 12:09:55;;;;;;;;;;;34.90;27.10;;;;;;5028791;28;19999;-69
2023/08/28 12:12:21;;;;;;;;;;;34.40;28.20;;;;;;5031504;28;20324;-69
2023/08/28 12:14:48;;;;;;;;;;;34.30;28.50;;;;;;5030990;28;19924;-69
2023/08/28 12:17:14;;;;;;;;;;;34.10;28.60;;;;;;5031659;28;20369;-68
2023/08/28 12:19:40;;;;;;;;;;;34.00;28.90;;;;;;5029101;28;20284;-68
2023/08/28 12:22:06;;;;;;;;;;;34.10;29.40;;;;;;5031087;28;19910;-68
2023/08/28 12:24:31;;;;;;;;;;;34.20;28.90;;;;;;5029307;28;19921;-69
2023/08/28 12:26:57;;;;;;;;;;;34.10;28.70;;;;;;5030331;28;19921;-69
2023/08/28 12:29:25;;;;;;;;;;;34.00;28.90;;;;;;5031301;28;20006;-68
2023/08/28 12:31:50;;;;;;;;;;;34.00;28.80;;;;;;5031226;28;19948;-69
2023/08/28 12:34:16;;;;;;;;;;;34.10;28.70;;;;;;5029774;28;19917;-69
2023/08/28 12:36:43;;;;;;;;;;;34.00;28.50;;;;;;5033350;28;20340;-68
2023/08/28 12:39:12;;;;;;;;;;;34.00;29.00;;;;;;5031489;28;19917;-68
2023/08/28 12:41:48;;;;;;;;;;;34.00;29.10;;;;;;5034094;28;20265;-68
2023/08/28 12:44:13;;;;;;;;;;;34.00;29.10;;;;;;5030435;28;19924;-68
2023/08/28 12:46:38;;;;;;;;;;;34.00;29.30;;;;;;5029045;28;19913;-68
2023/08/28 12:49:04;;;;;;;;;;;34.10;29.40;;;;;;5022936;28;20494;-68
2023/08/28 12:51:29;;;;;;;;;;;34.30;29.30;;;;;;5015064;28;20356;-68
2023/08/28 12:53:55;;;;;;;;;;;34.40;29.40;;;;;;5014976;28;19985;-68
2023/08/28 12:56:20;;;;;;;;;;;34.60;29.00;;;;;;5015298;28;19975;-68
2023/08/28 12:58:47;;;;;;;;;;;34.80;29.50;;;;;;5013700;28;19914;-68
2023/08/28 13:01:13;;;;;;;;;;;35.10;29.30;;;;;;5026695;28;19940;-68
2023/08/28 13:03:39;;;;;;;;;;;35.30;28.60;;;;;;5033550;28;19909;-68
2023/08/28 13:06:04;;;;;;;;;;;35.50;28.10;;;;;;5034883;28;20391;-68
2023/08/28 13:08:30;;;;;;;;;;;35.60;27.90;;;;;;5034632;28;19960;-69
2023/08/28 13:10:55;;;;;;;;;;;35.60;27.20;;;;;;5033299;28;20364;-68
2023/08/28 13:13:24;;;;;;;;;;;35.60;27.30;;;;;;5035277;28;19952;-76
2023/08/28 13:15:54;;;;;;;;;;;35.50;27.30;;;;;;5035139;28;19918;-75
2023/08/28 13:18:19;;;;;;;;;;;35.50;27.50;;;;;;5041710;28;20318;-75
2023/08/28 13:20:45;;;;;;;;;;;35.40;27.60;;;;;;5037129;28;19923;-76
2023/08/28 13:23:10;;;;;;;;;;;35.40;27.40;;;;;;5037209;28;19910;-75
2023/08/28 13:25:36;;;;;;;;;;;35.30;26.70;;;;;;5037684;28;19917;-75
2023/08/28 13:28:01;;;;;;;;;;;34.80;26.40;;;;;;5035722;28;20004;-75
2023/08/28 13:30:27;;;;;;;;;;;34.60;26.90;;;;;;5037275;28;19924;-76
2023/08/28 13:32:52;;;;;;;;;;;34.50;27.10;;;;;;5037013;28;19960;-76
2023/08/28 13:35:18;;;;;;;;;;;34.50;27.20;;;;;;5037711;28;20320;-76
2023/08/28 13:37:43;;;;;;;;;;;34.30;27.30;;;;;;5040283;28;19964;-75
2023/08/28 13:40:09;;;;;;;;;;;34.10;27.70;;;;;;5040104;28;19917;-76
2023/08/28 13:42:35;;;;;;;;;;;33.80;27.70;;;;;;5033223;28;19923;-75
2023/08/28 13:45:00;;;;;;;;;;;33.70;28.10;;;;;;5032750;28;19917;-75
2023/08/28 13:47:27;;;;;;;;;;;33.60;28.10;;;;;;5032312;28;19923;-76
2023/08/28 13:49:53;;;;;;;;;;;33.50;27.00;;;;;;5039691;28;19940;-76
2023/08/28 13:52:18;;;;;;;;;;;33.30;26.60;;;;;;5040408;28;19905;-75
2023/08/28 13:54:44;;;;;;;;;;;33.20;27.00;;;;;;5037939;28;19925;-75
2023/08/28 13:57:10;;;;;;;;;;;32.90;26.90;;;;;;5038958;28;19913;-79
2023/08/28 13:59:35;;;;;;;;;;;32.50;26.90;;;;;;5039366;28;19932;-76
2023/08/28 14:02:01;;;;;;;;;;;32.20;26.90;;;;;;5037095;28;20397;-76
2023/08/28 14:04:26;;;;;;;;;;;31.90;27.70;;;;;;5036588;28;20365;-75
2023/08/28 14:06:52;;;;;;;;;;;31.80;28.10;;;;;;5036918;28;20377;-75
2023/08/28 14:09:17;;;;;;;;;;;31.60;27.70;;;;;;5037790;28;19918;-71
2023/08/28 14:11:42;;;;;;;;;;;31.30;28.20;;;;;;5036707;28;19913;-75